Time;durP1;ratioP1;P1;durP2;ratioP2;P2;SDS_P1;SDS_P2;PMS_P1;PMS_P2;Temp;Humidity;BMP_temperature;BMP_pressure;BME280_temperature;BME280_humidity;BME280_pressure;Samples;Min_cycle;Max_cycle;Signal;HPM_P1;HPM_P2
2023/05/08 00:02:25;;;;;;;1.55;1.45;;;13.30;99.90;;;;;;5021343;28;20427;-75
2023/05/08 00:04:52;;;;;;;1.70;1.60;;;13.20;99.90;;;;;;5018528;28;20953;-75
2023/05/08 00:07:19;;;;;;;1.48;1.38;;;13.20;99.90;;;;;;5020091;28;20814;-75
2023/05/08 00:09:48;;;;;;;1.87;1.77;;;13.20;99.90;;;;;;5020043;28;20462;-75
2023/05/08 00:12:15;;;;;;;1.30;1.20;;;13.10;99.90;;;;;;5023867;28;20771;-75
2023/05/08 00:14:43;;;;;;;0.90;0.90;;;13.10;99.90;;;;;;5020637;28;20441;-75
2023/05/08 00:17:10;;;;;;;1.17;1.17;;;13.10;99.90;;;;;;5022905;28;20427;-75
2023/05/08 00:19:37;;;;;;;2.10;1.40;;;13.10;99.90;;;;;;5023286;28;20444;-75
2023/05/08 00:22:03;;;;;;;0.95;0.95;;;13.10;99.90;;;;;;5015190;28;20461;-75
2023/05/08 00:24:32;;;;;;;2.42;1.50;;;13.10;99.90;;;;;;5025168;28;20435;-75
2023/05/08 00:26:59;;;;;;;2.00;1.30;;;13.10;99.90;;;;;;5039899;28;20893;-75
2023/05/08 00:29:25;;;;;;;1.20;1.20;;;13.10;99.90;;;;;;5021399;28;20437;-75
2023/05/08 00:31:54;;;;;;;1.30;1.20;;;13.10;99.90;;;;;;5012772;28;20439;-75
2023/05/08 00:34:20;;;;;;;1.58;1.48;;;13.20;99.90;;;;;;5023974;28;20475;-75
2023/05/08 00:36:51;;;;;;;1.20;1.20;;;13.10;99.90;;;;;;5023812;28;20524;-75
2023/05/08 00:39:19;;;;;;;1.52;1.42;;;13.10;99.90;;;;;;5016013;28;20438;-75
2023/05/08 00:41:46;;;;;;;1.70;1.60;;;13.10;99.90;;;;;;5019546;28;20840;-75
2023/05/08 00:44:13;;;;;;;1.20;1.20;;;13.20;99.90;;;;;;5025013;28;20526;-75
2023/05/08 00:46:45;;;;;;;1.30;1.20;;;13.10;99.90;;;;;;5023524;28;20540;-75
2023/05/08 00:49:13;;;;;;;1.58;1.48;;;13.10;99.90;;;;;;5025376;28;20872;-75
2023/05/08 00:51:42;;;;;;;1.10;1.10;;;13.10;99.90;;;;;;5023940;28;20450;-76
2023/05/08 00:54:10;;;;;;;1.70;1.60;;;13.10;99.90;;;;;;5020995;28;20585;-74
2023/05/08 00:56:37;;;;;;;1.67;1.57;;;13.10;99.90;;;;;;5020761;28;20461;-75
2023/05/08 00:59:12;;;;;;;0.90;0.90;;;13.00;99.90;;;;;;5027789;28;20442;-75
2023/05/08 01:01:39;;;;;;;2.20;2.03;;;13.00;99.90;;;;;;5025403;28;20506;-75
2023/05/08 01:04:06;;;;;;;1.30;1.20;;;12.90;99.90;;;;;;5018994;28;20529;-75
2023/05/08 01:06:33;;;;;;;2.15;1.33;;;12.90;99.90;;;;;;5019393;28;20442;-75
2023/05/08 01:09:00;;;;;;;1.58;1.48;;;12.90;99.90;;;;;;5025324;28;20964;-75
2023/05/08 01:11:45;;;;;;;1.40;1.30;;;12.90;99.90;;;;;;5040317;28;20435;-75
2023/05/08 01:14:23;;;;;;;1.35;1.25;;;12.90;99.90;;;;;;5021697;28;20470;-75
2023/05/08 01:17:10;;;;;;;1.42;1.40;;;12.90;99.90;;;;;;5025248;28;20917;-75
2023/05/08 01:19:52;;;;;;;1.52;1.42;;;12.80;99.90;;;;;;5024378;28;20431;-75
2023/05/08 01:22:19;;;;;;;1.63;1.52;;;12.90;99.90;;;;;;5017148;28;20435;-74
2023/05/08 01:25:07;;;;;;;1.17;1.17;;;12.80;99.90;;;;;;5018401;28;20454;-74
2023/05/08 01:27:55;;;;;;;1.30;1.30;;;12.80;99.90;;;;;;5026520;28;20438;-75
2023/05/08 01:30:56;;;;;;;2.10;1.50;;;12.70;99.90;;;;;;5018171;28;20534;-75
2023/05/08 01:33:31;;;;;;;2.70;1.67;;;12.70;99.90;;;;;;5027542;28;20439;-75
2023/05/08 01:36:06;;;;;;;1.13;1.13;;;12.70;99.90;;;;;;5025348;28;20630;-74
2023/05/08 01:38:44;;;;;;;1.50;1.40;;;12.60;99.90;;;;;;5027390;28;20504;-74
2023/05/08 01:41:15;;;;;;;1.90;1.27;;;12.60;99.90;;;;;;5024340;28;20437;-74
2023/05/08 01:43:52;;;;;;;1.70;1.30;;;12.60;99.90;;;;;;5024313;28;20437;-75
2023/05/08 01:46:24;;;;;;;1.40;1.20;;;12.50;99.90;;;;;;5013597;28;20443;-75
2023/05/08 01:49:09;;;;;;;1.23;1.17;;;12.50;99.90;;;;;;5017616;28;20439;-75
2023/05/08 01:51:51;;;;;;;1.23;1.13;;;12.50;99.90;;;;;;5025052;28;20766;-75
2023/05/08 01:54:23;;;;;;;2.17;1.98;;;12.50;99.90;;;;;;5026454;28;20446;-74
2023/05/08 01:56:53;;;;;;;1.88;1.77;;;12.50;99.90;;;;;;5025966;28;20522;-75
2023/05/08 01:59:22;;;;;;;1.35;1.30;;;12.50;99.90;;;;;;5023775;28;20441;-75
2023/05/08 02:01:52;;;;;;;1.65;1.55;;;12.50;99.90;;;;;;5022574;28;20434;-75
2023/05/08 02:04:20;;;;;;;2.23;2.03;;;12.50;99.90;;;;;;5026012;28;21048;-75
2023/05/08 02:06:50;;;;;;;1.73;1.53;;;12.50;99.90;;;;;;5024280;28;20717;-75
2023/05/08 02:09:19;;;;;;;1.40;1.40;;;12.60;99.90;;;;;;5027018;28;20438;-75
2023/05/08 02:11:48;;;;;;;1.90;1.70;;;12.60;99.90;;;;;;5025176;28;20434;-74
2023/05/08 02:14:17;;;;;;;1.65;1.55;;;12.60;99.90;;;;;;5024159;28;20435;-75
2023/05/08 02:16:45;;;;;;;1.95;1.75;;;12.70;99.90;;;;;;5025921;28;20439;-75
2023/05/08 02:19:13;;;;;;;1.38;1.38;;;12.60;99.90;;;;;;5024158;28;20434;-75
2023/05/08 02:21:43;;;;;;;1.30;1.20;;;12.70;99.90;;;;;;5015916;28;20436;-75
2023/05/08 02:24:11;;;;;;;1.55;1.45;;;12.70;99.90;;;;;;5024212;28;20435;-75
2023/05/08 02:26:41;;;;;;;1.60;1.50;;;12.70;99.90;;;;;;5018396;28;20432;-74
2023/05/08 02:29:08;;;;;;;1.55;1.33;;;12.70;99.90;;;;;;5026060;28;20431;-74
2023/05/08 02:31:36;;;;;;;1.63;1.52;;;12.70;99.90;;;;;;5017646;28;20956;-75
2023/05/08 02:34:05;;;;;;;1.42;1.33;;;12.70;99.90;;;;;;5019661;28;20913;-75
2023/05/08 02:36:35;;;;;;;1.67;1.58;;;12.70;99.90;;;;;;5018215;28;20435;-75
2023/05/08 02:39:07;;;;;;;1.55;1.45;;;12.60;99.90;;;;;;5023723;28;20513;-75
2023/05/08 02:41:36;;;;;;;1.27;1.27;;;12.60;99.90;;;;;;5021009;28;20493;-75
2023/05/08 02:44:02;;;;;;;1.40;1.37;;;12.60;99.90;;;;;;5015830;28;20963;-75
2023/05/08 02:46:52;;;;;;;2.03;1.48;;;12.60;99.90;;;;;;5020705;28;20438;-75
2023/05/08 02:49:26;;;;;;;1.30;1.30;;;12.60;99.90;;;;;;5024270;28;20527;-75
2023/05/08 02:52:00;;;;;;;2.20;1.63;;;12.60;99.90;;;;;;5017239;28;20440;-75
2023/05/08 02:54:45;;;;;;;1.70;1.27;;;12.60;99.90;;;;;;5018909;28;20435;-75
2023/05/08 02:57:52;;;;;;;2.00;1.23;;;12.60;99.90;;;;;;5023287;28;20678;-75
2023/05/08 03:00:22;;;;;;;1.85;1.50;;;12.60;99.90;;;;;;5015344;28;20423;-75
2023/05/08 03:03:09;;;;;;;1.93;1.83;;;12.60;99.90;;;;;;5025690;28;20857;-75
2023/05/08 03:05:39;;;;;;;1.55;1.48;;;12.60;99.90;;;;;;5020793;28;20470;-75
2023/05/08 03:08:12;;;;;;;1.75;1.48;;;12.60;99.90;;;;;;5023705;28;20433;-75
2023/05/08 03:10:42;;;;;;;1.40;1.40;;;12.50;99.90;;;;;;5025549;28;20793;-75
2023/05/08 03:13:11;;;;;;;1.83;1.70;;;12.60;99.90;;;;;;5021824;28;20477;-75
2023/05/08 03:15:43;;;;;;;1.40;1.30;;;12.60;99.90;;;;;;5020726;28;20433;-75
2023/05/08 03:18:14;;;;;;;1.48;1.38;;;12.60;99.90;;;;;;5023630;28;20426;-75
2023/05/08 03:20:44;;;;;;;1.63;1.52;;;12.60;99.90;;;;;;5021546;28;20431;-75
2023/05/08 03:23:19;;;;;;;1.60;1.50;;;12.60;99.90;;;;;;5022309;28;20473;-75
2023/05/08 03:25:46;;;;;;;1.92;1.83;;;12.60;99.90;;;;;;5021865;28;20438;-75
2023/05/08 03:28:14;;;;;;;1.67;1.40;;;12.60;99.90;;;;;;5024399;28;20446;-75
2023/05/08 03:30:42;;;;;;;1.25;1.25;;;12.50;99.90;;;;;;5022680;28;20431;-75
2023/05/08 03:33:12;;;;;;;2.40;1.90;;;12.50;99.90;;;;;;5020201;28;20454;-75
2023/05/08 03:35:39;;;;;;;1.58;1.48;;;12.50;99.90;;;;;;5003413;28;20436;-75
2023/05/08 03:38:08;;;;;;;1.70;1.60;;;12.50;99.90;;;;;;5021571;28;20913;-75
2023/05/08 03:40:37;;;;;;;2.00;1.90;;;12.50;99.90;;;;;;5022347;28;20458;-75
2023/05/08 03:43:07;;;;;;;1.80;1.70;;;12.50;99.90;;;;;;5025906;28;20842;-75
2023/05/08 03:45:35;;;;;;;1.37;1.27;;;12.50;99.90;;;;;;5022288;28;20798;-75
2023/05/08 03:48:09;;;;;;;1.42;1.33;;;12.50;99.90;;;;;;5022132;28;20449;-75
2023/05/08 03:50:37;;;;;;;1.50;1.43;;;12.50;99.90;;;;;;5023123;28;20937;-75
2023/05/08 03:53:06;;;;;;;1.27;1.17;;;12.50;99.90;;;;;;5024958;28;20443;-75
2023/05/08 03:55:33;;;;;;;1.75;1.65;;;12.50;99.90;;;;;;5016260;28;20440;-75
2023/05/08 03:58:25;;;;;;;0.98;0.98;;;12.50;99.90;;;;;;5021603;28;20428;-75
2023/05/08 04:01:09;;;;;;;1.25;1.15;;;12.50;99.90;;;;;;5015690;28;20436;-75
2023/05/08 04:04:13;;;;;;;1.52;1.42;;;12.50;99.90;;;;;;5028942;28;20822;-75
2023/05/08 04:06:52;;;;;;;1.30;1.20;;;12.50;99.90;;;;;;5018159;28;20438;-75
2023/05/08 04:09:23;;;;;;;2.00;1.30;;;12.40;99.90;;;;;;5014682;28;20815;-75
2023/05/08 04:12:01;;;;;;;0.87;0.87;;;12.40;99.90;;;;;;5018861;28;20433;-75
2023/05/08 04:14:33;;;;;;;1.33;1.30;;;12.40;99.90;;;;;;5020244;28;20435;-75
2023/05/08 04:17:04;;;;;;;1.48;1.10;;;12.40;99.90;;;;;;5022612;28;20430;-75
2023/05/08 04:19:37;;;;;;;1.20;1.20;;;12.30;99.90;;;;;;5023078;28;20441;-76
2023/05/08 04:22:06;;;;;;;3.92;1.38;;;12.30;99.90;;;;;;5019811;28;21139;-75
2023/05/08 04:24:39;;;;;;;8.27;1.73;;;12.30;99.90;;;;;;5020002;28;20438;-75
2023/05/08 04:27:09;;;;;;;1.13;1.08;;;12.30;99.90;;;;;;5015107;28;20447;-76
2023/05/08 04:29:36;;;;;;;1.40;1.30;;;12.20;99.90;;;;;;5021971;28;20457;-76
2023/05/08 04:32:07;;;;;;;1.27;1.27;;;12.20;99.90;;;;;;5023132;28;20434;-75
2023/05/08 04:34:37;;;;;;;1.30;1.20;;;12.20;99.90;;;;;;5011448;28;20468;-76
2023/05/08 04:37:06;;;;;;;1.15;1.15;;;12.20;99.90;;;;;;5018681;28;20448;-76
2023/05/08 04:39:33;;;;;;;2.03;1.58;;;12.20;99.90;;;;;;5010318;28;20542;-76
2023/05/08 04:42:02;;;;;;;1.75;1.65;;;12.20;99.90;;;;;;5016832;28;20508;-76
2023/05/08 04:44:29;;;;;;;2.28;1.55;;;12.20;99.90;;;;;;5014964;28;20438;-76
2023/05/08 04:46:56;;;;;;;1.50;1.40;;;12.20;99.90;;;;;;5019444;28;20462;-75
2023/05/08 04:49:22;;;;;;;1.33;1.33;;;12.20;99.90;;;;;;5018390;28;20438;-75
2023/05/08 04:51:49;;;;;;;1.25;1.15;;;12.20;99.90;;;;;;5013091;28;20787;-76
2023/05/08 04:54:16;;;;;;;1.30;1.20;;;12.10;99.90;;;;;;5014069;28;20435;-75
2023/05/08 04:56:43;;;;;;;4.00;1.25;;;12.10;99.90;;;;;;5009327;28;20931;-75
2023/05/08 04:59:10;;;;;;;2.15;1.95;;;12.10;99.90;;;;;;5009745;28;20524;-76
2023/05/08 05:01:38;;;;;;;1.10;1.10;;;12.10;99.90;;;;;;5017317;28;20473;-76
2023/05/08 05:04:05;;;;;;;2.65;1.25;;;12.10;99.90;;;;;;5014045;28;21597;-76
2023/05/08 05:06:33;;;;;;;1.20;1.20;;;12.10;99.90;;;;;;5018878;28;20438;-76
2023/05/08 05:08:59;;;;;;;1.33;1.23;;;12.10;99.90;;;;;;5014045;28;20434;-76
2023/05/08 05:11:26;;;;;;;1.75;1.52;;;12.10;99.90;;;;;;5022371;28;21309;-76
2023/05/08 05:13:53;;;;;;;1.27;1.27;;;12.10;99.90;;;;;;5019675;28;20458;-75
2023/05/08 05:16:20;;;;;;;1.40;1.33;;;12.20;99.90;;;;;;5018592;28;20456;-75
2023/05/08 05:18:47;;;;;;;1.08;1.02;;;12.20;99.90;;;;;;5016996;28;20441;-75
2023/05/08 05:21:13;;;;;;;2.80;1.27;;;12.30;99.90;;;;;;5018343;28;20860;-77
2023/05/08 05:23:40;;;;;;;1.65;1.48;;;12.30;99.90;;;;;;5018436;28;20826;-77
2023/05/08 05:26:07;;;;;;;1.50;1.40;;;12.30;99.90;;;;;;5021680;28;20470;-77
2023/05/08 05:28:33;;;;;;;1.27;1.20;;;12.30;99.90;;;;;;5010460;28;20464;-76
2023/05/08 05:31:00;;;;;;;1.80;1.70;;;12.40;99.90;;;;;;5022927;28;20446;-77
2023/05/08 05:33:27;;;;;;;2.00;1.33;;;12.50;99.90;;;;;;5027025;28;20513;-77
2023/05/08 05:35:53;;;;;;;1.27;1.17;;;12.60;99.90;;;;;;5023378;28;20451;-76
2023/05/08 05:38:20;;;;;;;1.30;1.30;;;12.70;99.90;;;;;;5020180;28;20515;-77
2023/05/08 05:40:47;;;;;;;2.13;1.25;;;12.70;99.90;;;;;;5022235;28;21297;-77
2023/05/08 05:43:13;;;;;;;2.45;1.52;;;12.80;99.90;;;;;;5020332;28;20454;-77
2023/05/08 05:45:43;;;;;;;1.27;1.27;;;12.90;99.90;;;;;;5011744;28;20443;-77
2023/05/08 05:48:10;;;;;;;1.20;1.20;;;12.90;99.90;;;;;;5011938;28;20424;-77
2023/05/08 05:50:37;;;;;;;1.00;1.00;;;13.00;99.90;;;;;;5021445;28;20951;-76
2023/05/08 05:53:04;;;;;;;1.23;1.20;;;13.10;99.90;;;;;;5023366;28;20534;-76
2023/05/08 05:55:31;;;;;;;1.23;1.17;;;13.10;99.90;;;;;;5025420;28;20435;-77
2023/05/08 05:57:57;;;;;;;1.45;1.38;;;13.00;99.90;;;;;;5017314;28;20431;-75
2023/05/08 06:00:24;;;;;;;1.40;1.30;;;13.00;99.90;;;;;;5024565;28;20884;-76
2023/05/08 06:02:51;;;;;;;1.08;1.08;;;13.00;99.90;;;;;;5025265;28;20433;-75
2023/05/08 06:05:18;;;;;;;1.40;1.30;;;13.00;99.90;;;;;;5014662;28;20471;-76
2023/05/08 06:07:45;;;;;;;1.67;1.58;;;12.90;99.90;;;;;;5021298;28;20442;-75
2023/05/08 06:10:12;;;;;;;1.67;1.57;;;12.90;99.90;;;;;;5026003;28;20438;-75
2023/05/08 06:12:41;;;;;;;1.42;1.42;;;12.90;99.90;;;;;;5019614;28;20514;-75
2023/05/08 06:15:08;;;;;;;2.37;1.40;;;12.90;99.90;;;;;;5011569;28;20495;-76
2023/05/08 06:17:35;;;;;;;1.45;1.45;;;12.90;99.90;;;;;;5016535;28;20854;-75
2023/05/08 06:20:02;;;;;;;1.70;1.60;;;13.00;99.90;;;;;;5044188;28;20446;-76
2023/05/08 06:22:31;;;;;;;1.10;1.10;;;13.10;99.90;;;;;;5011858;28;20476;-76
2023/05/08 06:24:58;;;;;;;1.42;1.33;;;13.20;99.90;;;;;;5011606;28;20951;-76
2023/05/08 06:27:25;;;;;;;1.52;1.45;;;13.30;99.90;;;;;;5012618;28;20561;-76
2023/05/08 06:29:55;;;;;;;1.30;1.30;;;13.60;99.90;;;;;;5022457;28;20437;-76
2023/05/08 06:32:23;;;;;;;1.13;1.13;;;13.60;99.90;;;;;;5022565;28;20492;-75
2023/05/08 06:34:50;;;;;;;1.48;1.33;;;13.80;99.90;;;;;;5011358;28;20454;-75
2023/05/08 06:37:16;;;;;;;1.35;1.25;;;14.00;99.90;;;;;;5029077;28;20435;-75
2023/05/08 06:39:43;;;;;;;1.40;1.33;;;14.10;99.90;;;;;;5014421;28;21062;-76
2023/05/08 06:42:10;;;;;;;1.48;1.48;;;14.20;99.90;;;;;;5015660;28;20443;-75
2023/05/08 06:44:37;;;;;;;2.85;1.58;;;14.30;1.00;;;;;;5022503;28;20441;-76
2023/05/08 06:47:04;;;;;;;1.40;1.40;;;14.40;99.90;;;;;;5015134;28;20445;-76
2023/05/08 06:49:31;;;;;;;1.70;1.30;;;14.60;1.00;;;;;;5020241;28;20489;-74
2023/05/08 06:51:58;;;;;;;1.27;1.20;;;14.90;99.90;;;;;;5014394;28;20446;-74
2023/05/08 06:54:24;;;;;;;1.50;1.50;;;15.10;99.90;;;;;;5013773;28;20923;-77
2023/05/08 06:56:52;;;;;;;1.10;1.02;;;15.30;99.90;;;;;;5016599;28;21139;-74
2023/05/08 06:59:20;;;;;;;1.35;1.33;;;15.20;1.00;;;;;;5019285;28;20497;-75
2023/05/08 07:01:47;;;;;;;1.30;1.30;;;15.20;1.00;;;;;;5015240;28;20431;-74
2023/05/08 07:04:14;;;;;;;1.77;1.67;;;15.00;99.90;;;;;;5019590;28;20440;-75
2023/05/08 07:06:45;;;;;;;1.20;1.10;;;15.00;99.90;;;;;;5023447;28;20427;-74
2023/05/08 07:09:11;;;;;;;1.63;1.53;;;15.20;90.40;;;;;;5023729;28;20521;-77
2023/05/08 07:11:40;;;;;;;1.52;1.33;;;15.10;99.90;;;;;;5017117;28;20518;-77
2023/05/08 07:14:12;;;;;;;1.67;1.58;;;15.20;99.90;;;;;;5022622;28;20559;-75
2023/05/08 07:16:39;;;;;;;1.63;1.53;;;15.40;1.00;;;;;;5020038;28;20436;-75
2023/05/08 07:19:06;;;;;;;1.73;1.60;;;15.60;1.40;;;;;;5009509;28;20527;-75
2023/05/08 07:21:32;;;;;;;1.20;1.10;;;15.70;99.90;;;;;;5012319;28;20432;-75
2023/05/08 07:23:59;;;;;;;1.75;1.40;;;15.80;1.00;;;;;;5012444;28;21479;-75
2023/05/08 07:26:29;;;;;;;1.60;1.50;;;15.70;99.90;;;;;;5017633;28;20434;-75
2023/05/08 07:28:55;;;;;;;1.55;1.45;;;15.60;99.90;;;;;;5010225;28;20505;-75
2023/05/08 07:31:22;;;;;;;1.23;1.23;;;15.60;99.90;;;;;;5017709;28;20442;-76
2023/05/08 07:33:49;;;;;;;1.20;1.00;;;15.50;1.00;;;;;;5015651;28;21725;-76
2023/05/08 07:36:16;;;;;;;1.42;1.33;;;15.50;48.20;;;;;;5015605;28;20437;-76
2023/05/08 07:38:42;;;;;;;2.08;1.60;;;15.40;1.00;;;;;;5016599;28;20434;-76
2023/05/08 07:41:09;;;;;;;1.15;1.02;;;15.30;1.00;;;;;;5015421;28;20860;-76
2023/05/08 07:43:36;;;;;;;2.43;1.30;;;15.20;1.00;;;;;;5017380;28;20896;-76
2023/05/08 07:46:04;;;;;;;1.20;1.20;;;15.10;99.90;;;;;;5032882;28;20446;-76
2023/05/08 07:48:31;;;;;;;1.52;1.27;;;15.10;1.00;;;;;;5020236;28;20434;-76
2023/05/08 07:51:00;;;;;;;1.33;1.23;;;15.00;99.90;;;;;;5017631;28;20439;-76
2023/05/08 07:53:26;;;;;;;1.45;1.40;;;15.10;99.90;;;;;;5018605;28;20431;-76
2023/05/08 07:55:53;;;;;;;2.22;1.73;;;15.10;1.00;;;;;;5016991;28;20490;-76
2023/05/08 07:58:20;;;;;;;1.60;1.50;;;15.00;99.90;;;;;;5013580;28;20435;-76
2023/05/08 08:00:49;;;;;;;1.50;1.27;;;15.40;99.90;;;;;;5018286;28;20425;-76
2023/05/08 08:03:16;;;;;;;1.55;1.45;;;15.60;1.00;;;;;;5017116;28;20427;-76
2023/05/08 08:05:43;;;;;;;1.52;1.42;;;15.80;1.00;;;;;;5016110;28;20434;-76
2023/05/08 08:08:09;;;;;;;1.40;1.30;;;16.10;99.90;;;;;;5010319;28;21022;-76
2023/05/08 08:10:36;;;;;;;1.43;1.33;;;16.30;99.90;;;;;;5017854;28;20435;-76
2023/05/08 08:13:02;;;;;;;1.60;1.50;;;16.40;99.90;;;;;;5017340;28;20857;-76
2023/05/08 08:15:29;;;;;;;1.50;1.50;;;16.50;99.90;;;;;;5011568;28;20431;-81
2023/05/08 08:17:56;;;;;;;1.48;1.38;;;16.90;79.00;;;;;;5017565;28;20438;-76
2023/05/08 08:20:23;;;;;;;1.67;1.58;;;17.00;99.90;;;;;;5017175;28;20521;-77
2023/05/08 08:22:52;;;;;;;1.73;1.63;;;17.10;1.00;;;;;;5014496;28;20438;-77
2023/05/08 08:25:19;;;;;;;1.30;1.30;;;17.30;99.90;;;;;;5019224;28;20435;-75
2023/05/08 08:27:46;;;;;;;1.38;1.38;;;17.20;99.90;;;;;;5012953;28;20444;-74
2023/05/08 08:30:13;;;;;;;1.35;1.33;;;17.20;99.90;;;;;;5013025;28;20439;-74
2023/05/08 08:32:44;;;;;;;1.35;1.25;;;17.10;99.90;;;;;;5014868;28;20572;-75
2023/05/08 08:35:12;;;;;;;1.58;1.48;;;16.90;1.00;;;;;;5011707;28;20985;-77
2023/05/08 08:37:39;;;;;;;1.13;1.00;;;17.30;1.00;;;;;;5013068;28;20829;-75
2023/05/08 08:40:06;;;;;;;1.83;1.77;;;17.50;99.90;;;;;;5013701;28;20856;-75
2023/05/08 08:42:33;;;;;;;1.27;1.17;;;17.60;99.90;;;;;;5018701;28;20442;-76
2023/05/08 08:45:00;;;;;;;1.80;1.40;;;17.60;99.90;;;;;;5022508;28;20511;-76
2023/05/08 08:47:28;;;;;;;2.03;1.70;;;17.40;99.90;;;;;;5023415;28;20980;-75
2023/05/08 08:49:57;;;;;;;1.20;1.17;;;17.60;99.90;;;;;;5024585;28;20939;-76
2023/05/08 08:52:47;;;;;;;1.17;1.17;;;17.50;99.90;;;;;;5028148;28;20925;-76
2023/05/08 08:55:16;;;;;;;1.60;1.50;;;17.80;99.90;;;;;;5020818;28;20518;-76
2023/05/08 08:58:07;;;;;;;1.13;1.13;;;18.10;47.70;;;;;;5025685;28;20427;-75
2023/05/08 09:00:39;;;;;;;1.40;1.40;;;17.60;1.00;;;;;;5038661;28;20432;-76
2023/05/08 09:03:06;;;;;;;3.03;1.40;;;17.30;99.90;;;;;;5011378;28;20438;-76
2023/05/08 09:05:34;;;;;;;1.70;1.60;;;17.70;99.90;;;;;;5011054;28;20442;-76
2023/05/08 09:08:02;;;;;;;2.25;1.73;;;17.70;37.90;;;;;;5024107;28;20438;-75
2023/05/08 09:10:28;;;;;;;1.40;1.30;;;16.80;99.90;;;;;;5019554;28;20961;-75
2023/05/08 09:12:55;;;;;;;1.35;1.25;;;16.80;1.00;;;;;;5025601;28;20449;-76
2023/05/08 09:15:22;;;;;;;1.35;1.33;;;16.90;1.00;;;;;;5017751;28;20542;-76
2023/05/08 09:17:49;;;;;;;2.47;1.40;;;17.10;99.90;;;;;;5024713;28;20431;-75
2023/05/08 09:20:15;;;;;;;1.97;1.33;;;17.20;99.90;;;;;;5023483;28;20551;-77
2023/05/08 09:22:43;;;;;;;1.60;1.25;;;17.50;1.00;;;;;;5026793;28;20430;-77
2023/05/08 09:25:12;;;;;;;1.30;1.30;;;17.90;99.90;;;;;;5017809;28;20438;-77
2023/05/08 09:27:39;;;;;;;2.20;1.70;;;18.10;1.00;;;;;;5020975;28;20430;-76
2023/05/08 09:30:08;;;;;;;1.50;1.40;;;18.40;1.00;;;;;;5014167;28;20435;-77
2023/05/08 09:32:39;;;;;;;1.42;1.40;;;18.90;1.00;;;;;;5020359;28;20443;-77
2023/05/08 09:35:07;;;;;;;1.40;1.35;;;19.10;1.00;;;;;;5023778;28;20865;-77
2023/05/08 09:37:38;;;;;;;1.50;1.40;;;19.10;1.00;;;;;;5015548;28;20946;-77
2023/05/08 09:40:13;;;;;;;1.30;1.20;;;19.20;1.00;;;;;;5019499;28;20436;-76
2023/05/08 09:42:40;;;;;;;1.60;1.40;;;19.30;99.90;;;;;;5021370;28;20911;-77
2023/05/08 09:45:07;;;;;;;1.20;1.20;;;19.20;1.00;;;;;;5025582;28;20462;-75
2023/05/08 09:47:38;;;;;;;2.20;1.60;;;19.50;1.00;;;;;;5025183;28;20438;-75
2023/05/08 09:50:10;;;;;;;1.77;1.67;;;19.60;99.90;;;;;;5023908;28;20445;-76
2023/05/08 09:52:37;;;;;;;1.70;1.60;;;19.40;99.90;;;;;;5025901;28;20976;-77
2023/05/08 09:55:09;;;;;;;1.50;1.40;;;19.50;99.90;;;;;;5020713;28;20466;-76
2023/05/08 09:57:50;;;;;;;1.73;1.27;;;19.70;99.90;;;;;;5024646;28;20485;-76
2023/05/08 10:00:17;;;;;;;1.23;1.23;;;19.40;99.90;;;;;;5021959;28;20611;-76
2023/05/08 10:02:56;;;;;;;1.15;1.15;;;19.50;99.90;;;;;;5023578;28;20971;-76
2023/05/08 10:05:26;;;;;;;1.50;1.40;;;19.80;99.90;;;;;;5025805;28;20980;-76
2023/05/08 10:07:53;;;;;;;1.58;1.50;;;19.40;99.90;;;;;;5022409;28;20988;-77
2023/05/08 10:10:27;;;;;;;1.80;1.70;;;19.80;99.90;;;;;;5022027;28;20489;-77
2023/05/08 10:12:55;;;;;;;1.50;1.40;;;19.70;99.90;;;;;;5021376;28;20787;-76
2023/05/08 10:15:32;;;;;;;1.63;1.52;;;19.80;99.90;;;;;;5023941;28;20500;-75
2023/05/08 10:18:04;;;;;;;1.55;1.45;;;19.40;99.90;;;;;;5021130;28;20430;-76
2023/05/08 10:20:33;;;;;;;1.63;1.52;;;19.20;99.90;;;;;;5032720;28;20435;-77
2023/05/08 10:23:02;;;;;;;1.48;1.48;;;19.60;99.90;;;;;;5021716;28;20434;-77
2023/05/08 10:25:34;;;;;;;1.23;1.13;;;19.90;99.90;;;;;;5021344;28;20531;-76
2023/05/08 10:28:22;;;;;;;1.52;1.38;;;20.20;99.90;;;;;;5017754;28;20501;-77
2023/05/08 10:30:55;;;;;;;1.25;1.25;;;20.30;99.90;;;;;;5008583;28;20938;-77
2023/05/08 10:33:27;;;;;;;1.60;1.45;;;20.20;99.90;;;;;;5022862;28;20467;-75
2023/05/08 10:35:57;;;;;;;1.33;1.23;;;19.80;99.90;;;;;;5019785;28;21064;-75
2023/05/08 10:38:25;;;;;;;2.15;1.80;;;19.80;99.90;;;;;;5019741;28;20431;-75
2023/05/08 10:40:58;;;;;;;2.15;1.55;;;19.40;99.90;;;;;;5013146;28;20445;-77
2023/05/08 10:43:27;;;;;;;1.30;1.30;;;19.50;99.90;;;;;;5018029;28;20423;-74
2023/05/08 10:45:56;;;;;;;1.90;1.40;;;19.40;99.90;;;;;;5017224;28;20806;-74
2023/05/08 10:48:39;;;;;;;2.15;1.02;;;19.00;99.90;;;;;;5020303;28;20439;-75
2023/05/08 10:51:26;;;;;;;2.20;1.52;;;18.90;99.90;;;;;;5035782;28;20434;-75
2023/05/08 10:54:00;;;;;;;2.00;1.90;;;19.20;99.90;;;;;;5018201;28;20953;-74
2023/05/08 10:56:27;;;;;;;1.77;1.67;;;19.20;99.90;;;;;;5022493;28;20434;-75
2023/05/08 10:58:56;;;;;;;1.50;1.40;;;19.30;99.90;;;;;;5024599;28;20764;-75
2023/05/08 11:01:25;;;;;;;1.80;1.70;;;19.60;99.90;;;;;;5020471;28;20441;-75
2023/05/08 11:03:54;;;;;;;1.73;1.60;;;19.90;99.90;;;;;;5013002;28;20990;-75
2023/05/08 11:06:49;;;;;;;1.25;1.20;;;20.10;99.90;;;;;;5012114;28;20713;-75
2023/05/08 11:09:29;;;;;;;1.67;1.58;;;20.40;99.90;;;;;;5019110;28;20439;-75
2023/05/08 11:12:24;;;;;;;1.40;1.30;;;20.60;99.90;;;;;;5035101;28;20493;-76
2023/05/08 11:15:00;;;;;;;1.73;1.63;;;20.80;99.90;;;;;;5010888;28;20991;-75
2023/05/08 11:17:27;;;;;;;1.60;1.50;;;20.90;99.90;;;;;;5030168;28;20927;-75
2023/05/08 11:19:57;;;;;;;1.92;1.83;;;21.20;99.90;;;;;;5019867;28;20431;-76
2023/05/08 11:22:28;;;;;;;1.65;1.55;;;21.40;99.90;;;;;;5024930;28;20431;-75
2023/05/08 11:25:11;;;;;;;1.77;1.40;;;21.00;99.90;;;;;;5020132;28;20510;-76
2023/05/08 11:27:47;;;;;;;2.00;1.85;;;20.80;99.90;;;;;;5013862;28;20497;-75
2023/05/08 11:30:32;;;;;;;1.80;1.70;;;20.30;99.90;;;;;;5023408;28;20470;-76
2023/05/08 11:33:05;;;;;;;3.08;2.00;;;21.00;99.90;;;;;;5019641;28;20461;-76
2023/05/08 11:35:56;;;;;;;2.17;1.90;;;21.80;99.90;;;;;;5023200;28;20937;-76
2023/05/08 11:38:29;;;;;;;1.92;1.73;;;22.10;99.90;;;;;;5013806;28;20438;-76
2023/05/08 11:41:04;;;;;;;1.60;1.48;;;22.60;99.90;;;;;;5041244;28;20425;-76
2023/05/08 11:43:31;;;;;;;1.90;1.70;;;22.40;99.90;;;;;;5019934;28;20443;-75
2023/05/08 11:46:27;;;;;;;1.77;1.67;;;22.50;99.90;;;;;;5020418;28;20447;-76
2023/05/08 11:49:00;;;;;;;1.63;1.52;;;22.20;99.90;;;;;;5019118;28;20438;-76
2023/05/08 11:51:31;;;;;;;1.55;1.48;;;22.20;99.90;;;;;;5020606;28;20939;-75
2023/05/08 11:53:59;;;;;;;1.55;1.52;;;21.90;99.90;;;;;;5017722;28;20932;-76
2023/05/08 11:56:26;;;;;;;1.60;1.50;;;21.90;99.90;;;;;;5014789;28;20465;-76
2023/05/08 11:59:04;;;;;;;1.88;1.70;;;22.00;99.90;;;;;;5020266;28;20798;-76
2023/05/08 12:01:34;;;;;;;1.85;1.75;;;21.60;99.90;;;;;;5021933;28;20431;-76
2023/05/08 12:04:09;;;;;;;1.75;1.65;;;21.50;99.90;;;;;;5022299;28;20957;-75
2023/05/08 12:06:38;;;;;;;1.50;1.40;;;21.30;99.90;;;;;;5016482;28;20551;-76
2023/05/08 12:09:16;;;;;;;2.20;1.90;;;21.50;99.90;;;;;;5019639;28;20438;-75
2023/05/08 12:11:45;;;;;;;3.58;1.65;;;21.30;99.90;;;;;;5030636;28;20522;-75
2023/05/08 12:14:13;;;;;;;1.52;1.40;;;21.20;99.90;;;;;;5011840;28;20534;-75
2023/05/08 12:16:40;;;;;;;1.65;1.55;;;21.30;99.90;;;;;;5011267;28;20485;-76
2023/05/08 12:19:12;;;;;;;2.60;1.92;;;21.40;99.90;;;;;;5037256;28;20437;-76
2023/05/08 12:21:47;;;;;;;1.55;1.45;;;21.70;99.90;;;;;;5025392;28;20426;-76
2023/05/08 12:24:21;;;;;;;1.65;1.55;;;21.60;99.90;;;;;;5024947;28;20441;-76
2023/05/08 12:26:49;;;;;;;1.80;1.70;;;21.40;99.90;;;;;;5025137;28;21005;-76
2023/05/08 12:29:18;;;;;;;2.37;1.93;;;21.30;99.90;;;;;;5024207;28;20426;-75
2023/05/08 12:31:45;;;;;;;1.58;1.48;;;21.20;99.90;;;;;;5019456;28;20451;-75
2023/05/08 12:34:12;;;;;;;2.67;1.58;;;20.90;99.90;;;;;;5024281;28;20960;-75
2023/05/08 12:36:39;;;;;;;2.03;1.90;;;20.70;99.90;;;;;;5023631;28;20442;-76
2023/05/08 12:39:17;;;;;;;2.10;2.00;;;20.80;99.90;;;;;;5018337;28;20833;-75
2023/05/08 12:41:49;;;;;;;1.70;1.60;;;20.50;99.90;;;;;;5022409;28;20643;-76
2023/05/08 12:44:24;;;;;;;1.90;1.77;;;20.20;99.90;;;;;;5013425;28;20629;-75
2023/05/08 12:46:55;;;;;;;1.70;1.60;;;20.10;99.90;;;;;;5021555;28;20447;-76
2023/05/08 12:49:27;;;;;;;2.00;1.65;;;19.90;99.90;;;;;;5021058;28;20428;-75
2023/05/08 12:52:05;;;;;;;1.90;1.70;;;19.40;1.00;;;;;;5016615;28;20837;-75
2023/05/08 12:54:40;;;;;;;1.45;1.45;;;19.20;1.00;;;;;;5019158;28;20652;-75
2023/05/08 12:57:11;;;;;;;2.40;2.00;;;19.30;1.00;;;;;;5017361;28;20526;-74
2023/05/08 12:59:38;;;;;;;1.70;1.60;;;19.40;1.00;;;;;;5022063;28;20445;-75
2023/05/08 13:02:13;;;;;;;1.90;1.80;;;19.00;1.00;;;;;;5018729;28;21143;-76
2023/05/08 13:04:45;;;;;;;3.35;1.80;;;19.20;1.00;;;;;;5021742;28;20426;-75
2023/05/08 13:07:13;;;;;;;1.70;1.60;;;19.40;1.00;;;;;;5014623;28;20463;-76